sensor_id;sensor_type;location;lat;lon;timestamp;pressure;altitude;pressure_sealevel;temperature;humidity
17593;BME280;8915;51.760;14.300;2022-07-05T00:02:17;101024.78;;;15.43;100.00
17593;BME280;8915;51.760;14.300;2022-07-05T00:04:46;101030.97;;;15.42;100.00
17593;BME280;8915;51.760;14.300;2022-07-05T00:07:12;101035.97;;;15.26;100.00
17593;BME280;8915;51.760;14.300;2022-07-05T00:09:45;101034.50;;;15.19;100.00
17593;BME280;8915;51.760;14.300;2022-07-05T00:12:12;101042.91;;;15.05;100.00
17593;BME280;8915;51.760;14.300;2022-07-05T00:14:39;101036.53;;;15.10;100.00
17593;BME280;8915;51.760;14.300;2022-07-05T00:17:06;101034.66;;;15.14;100.00
17593;BME280;8915;51.760;14.300;2022-07-05T00:19:33;101034.84;;;15.09;100.00
17593;BME280;8915;51.760;14.300;2022-07-05T00:22:01;101031.81;;;15.20;100.00
17593;BME280;8915;51.760;14.300;2022-07-05T00:24:28;101037.34;;;15.12;100.00
17593;BME280;8915;51.760;14.300;2022-07-05T00:26:54;101034.97;;;15.06;100.00
17593;BME280;8915;51.760;14.300;2022-07-05T00:29:21;101038.28;;;15.11;100.00
17593;BME280;8915;51.760;14.300;2022-07-05T00:31:47;101036.91;;;15.01;100.00
17593;BME280;8915;51.760;14.300;2022-07-05T00:34:14;101033.53;;;14.98;100.00
17593;BME280;8915;51.760;14.300;2022-07-05T00:36:41;101034.13;;;14.82;100.00
17593;BME280;8915;51.760;14.300;2022-07-05T00:39:10;101035.09;;;14.80;100.00
17593;BME280;8915;51.760;14.300;2022-07-05T00:41:37;101032.13;;;14.89;100.00
17593;BME280;8915;51.760;14.300;2022-07-05T00:44:05;101034.06;;;14.84;100.00
17593;BME280;8915;51.760;14.300;2022-07-05T00:46:32;101043.03;;;14.78;100.00
17593;BME280;8915;51.760;14.300;2022-07-05T00:49:00;101043.44;;;14.67;100.00
17593;BME280;8915;51.760;14.300;2022-07-05T00:51:29;101034.97;;;14.57;100.00
17593;BME280;8915;51.760;14.300;2022-07-05T00:53:56;101048.94;;;14.60;100.00
17593;BME280;8915;51.760;14.300;2022-07-05T00:56:24;101037.53;;;14.61;100.00
17593;BME280;8915;51.760;14.300;2022-07-05T00:58:51;101036.63;;;14.62;100.00
17593;BME280;8915;51.760;14.300;2022-07-05T01:01:18;101037.13;;;14.71;100.00
17593;BME280;8915;51.760;14.300;2022-07-05T01:03:45;101036.69;;;14.60;100.00
17593;BME280;8915;51.760;14.300;2022-07-05T01:06:13;101030.47;;;14.63;100.00
17593;BME280;8915;51.760;14.300;2022-07-05T01:08:41;101032.78;;;14.70;100.00
17593;BME280;8915;51.760;14.300;2022-07-05T01:11:09;101028.41;;;14.71;100.00
17593;BME280;8915;51.760;14.300;2022-07-05T01:13:37;101027.16;;;14.81;100.00
17593;BME280;8915;51.760;14.300;2022-07-05T01:16:04;101024.59;;;14.80;100.00
17593;BME280;8915;51.760;14.300;2022-07-05T01:18:32;101023.84;;;14.76;100.00
17593;BME280;8915;51.760;14.300;2022-07-05T01:20:59;101019.63;;;14.72;100.00
17593;BME280;8915;51.760;14.300;2022-07-05T01:23:28;101020.44;;;14.74;100.00
17593;BME280;8915;51.760;14.300;2022-07-05T01:25:56;101021.13;;;14.54;100.00
17593;BME280;8915;51.760;14.300;2022-07-05T01:28:23;101015.13;;;14.50;100.00
17593;BME280;8915;51.760;14.300;2022-07-05T01:30:49;101016.38;;;14.65;100.00
17593;BME280;8915;51.760;14.300;2022-07-05T01:33:17;101019.53;;;14.50;100.00
17593;BME280;8915;51.760;14.300;2022-07-05T01:35:44;101013.66;;;14.43;100.00
17593;BME280;8915;51.760;14.300;2022-07-05T01:38:11;101008.56;;;14.64;100.00
17593;BME280;8915;51.760;14.300;2022-07-05T01:40:39;101018.19;;;14.63;100.00
17593;BME280;8915;51.760;14.300;2022-07-05T01:43:06;101015.13;;;14.50;100.00
17593;BME280;8915;51.760;14.300;2022-07-05T01:45:32;101016.72;;;14.54;100.00
17593;BME280;8915;51.760;14.300;2022-07-05T01:48:09;101011.22;;;14.37;100.00
17593;BME280;8915;51.760;14.300;2022-07-05T01:50:38;101018.47;;;14.30;100.00
17593;BME280;8915;51.760;14.300;2022-07-05T01:53:08;101016.75;;;14.29;100.00
17593;BME280;8915;51.760;14.300;2022-07-05T01:55:36;101017.72;;;14.27;100.00
17593;BME280;8915;51.760;14.300;2022-07-05T01:58:04;101015.47;;;14.41;100.00
17593;BME280;8915;51.760;14.300;2022-07-05T02:00:41;101012.34;;;14.30;100.00
17593;BME280;8915;51.760;14.300;2022-07-05T02:03:08;101014.72;;;14.12;100.00
17593;BME280;8915;51.760;14.300;2022-07-05T02:05:35;101018.56;;;14.27;100.00
17593;BME280;8915;51.760;14.300;2022-07-05T02:08:03;101019.44;;;14.28;100.00
17593;BME280;8915;51.760;14.300;2022-07-05T02:10:29;101014.44;;;14.45;100.00
17593;BME280;8915;51.760;14.300;2022-07-05T02:12:56;101011.13;;;14.40;100.00
17593;BME280;8915;51.760;14.300;2022-07-05T02:15:24;101020.66;;;14.43;100.00
17593;BME280;8915;51.760;14.300;2022-07-05T02:17:50;101021.66;;;14.38;100.00
17593;BME280;8915;51.760;14.300;2022-07-05T02:20:17;101016.41;;;14.38;100.00
17593;BME280;8915;51.760;14.300;2022-07-05T02:22:44;101027.78;;;14.14;100.00
17593;BME280;8915;51.760;14.300;2022-07-05T02:25:11;101025.38;;;14.08;100.00
17593;BME280;8915;51.760;14.300;2022-07-05T02:27:39;101030.41;;;14.14;100.00
17593;BME280;8915;51.760;14.300;2022-07-05T02:30:06;101028.06;;;14.06;100.00
17593;BME280;8915;51.760;14.300;2022-07-05T02:32:39;101026.69;;;13.94;100.00
17593;BME280;8915;51.760;14.300;2022-07-05T02:35:07;101040.44;;;14.01;100.00
17593;BME280;8915;51.760;14.300;2022-07-05T02:37:34;101043.28;;;13.95;100.00
17593;BME280;8915;51.760;14.300;2022-07-05T02:40:04;101036.06;;;14.01;100.00
17593;BME280;8915;51.760;14.300;2022-07-05T02:42:36;101037.22;;;13.93;100.00
17593;BME280;8915;51.760;14.300;2022-07-05T02:45:03;101038.06;;;13.95;100.00
17593;BME280;8915;51.760;14.300;2022-07-05T02:47:30;101034.13;;;13.81;100.00
17593;BME280;8915;51.760;14.300;2022-07-05T02:49:59;101036.91;;;13.75;100.00
17593;BME280;8915;51.760;14.300;2022-07-05T02:52:28;101036.81;;;13.78;100.00
17593;BME280;8915;51.760;14.300;2022-07-05T02:54:55;101026.91;;;13.88;100.00
17593;BME280;8915;51.760;14.300;2022-07-05T02:57:22;101028.72;;;13.86;100.00
17593;BME280;8915;51.760;14.300;2022-07-05T02:59:48;101039.25;;;13.85;100.00
17593;BME280;8915;51.760;14.300;2022-07-05T03:02:15;101032.38;;;13.80;100.00
17593;BME280;8915;51.760;14.300;2022-07-05T03:04:41;101045.72;;;13.74;100.00
17593;BME280;8915;51.760;14.300;2022-07-05T03:07:09;101041.09;;;13.82;100.00
17593;BME280;8915;51.760;14.300;2022-07-05T03:09:36;101045.19;;;13.63;100.00
17593;BME280;8915;51.760;14.300;2022-07-05T03:12:04;101040.50;;;13.73;100.00
17593;BME280;8915;51.760;14.300;2022-07-05T03:14:33;101044.25;;;13.66;100.00
17593;BME280;8915;51.760;14.300;2022-07-05T03:16:59;101040.03;;;13.61;100.00
17593;BME280;8915;51.760;14.300;2022-07-05T03:19:26;101036.56;;;13.59;100.00
17593;BME280;8915;51.760;14.300;2022-07-05T03:21:52;101036.53;;;13.61;100.00
17593;BME280;8915;51.760;14.300;2022-07-05T03:24:20;101032.50;;;13.77;100.00
17593;BME280;8915;51.760;14.300;2022-07-05T03:26:47;101035.19;;;13.76;100.00
17593;BME280;8915;51.760;14.300;2022-07-05T03:29:13;101043.41;;;13.65;100.00
17593;BME280;8915;51.760;14.300;2022-07-05T03:31:41;101051.75;;;13.76;100.00
17593;BME280;8915;51.760;14.300;2022-07-05T03:34:08;101054.06;;;13.59;100.00
17593;BME280;8915;51.760;14.300;2022-07-05T03:36:35;101054.22;;;13.81;100.00
17593;BME280;8915;51.760;14.300;2022-07-05T03:39:05;101056.84;;;13.81;100.00
17593;BME280;8915;51.760;14.300;2022-07-05T03:41:35;101058.56;;;13.82;100.00
17593;BME280;8915;51.760;14.300;2022-07-05T03:44:03;101063.69;;;13.85;100.00
17593;BME280;8915;51.760;14.300;2022-07-05T03:46:30;101063.78;;;13.82;100.00
17593;BME280;8915;51.760;14.300;2022-07-05T03:48:57;101064.19;;;13.96;100.00
17593;BME280;8915;51.760;14.300;2022-07-05T03:51:23;101067.66;;;13.98;100.00
17593;BME280;8915;51.760;14.300;2022-07-05T03:53:52;101072.38;;;13.87;100.00
17593;BME280;8915;51.760;14.300;2022-07-05T03:56:19;101085.50;;;13.86;100.00
17593;BME280;8915;51.760;14.300;2022-07-05T03:58:52;101076.53;;;13.93;100.00
17593;BME280;8915;51.760;14.300;2022-07-05T04:01:18;101086.19;;;13.92;100.00
17593;BME280;8915;51.760;14.300;2022-07-05T04:03:45;101079.16;;;13.93;100.00
17593;BME280;8915;51.760;14.300;2022-07-05T04:06:14;101083.69;;;13.88;100.00
17593;BME280;8915;51.760;14.300;2022-07-05T04:08:41;101084.84;;;13.79;100.00
17593;BME280;8915;51.760;14.300;2022-07-05T04:11:07;101082.50;;;13.71;100.00
17593;BME280;8915;51.760;14.300;2022-07-05T04:13:37;101078.53;;;13.86;100.00
17593;BME280;8915;51.760;14.300;2022-07-05T04:16:06;101085.16;;;13.70;100.00
17593;BME280;8915;51.760;14.300;2022-07-05T04:18:33;101082.81;;;13.89;100.00
17593;BME280;8915;51.760;14.300;2022-07-05T04:21:00;101090.25;;;13.74;100.00
17593;BME280;8915;51.760;14.300;2022-07-05T04:23:26;101095.47;;;13.76;100.00
17593;BME280;8915;51.760;14.300;2022-07-05T04:25:54;101099.41;;;13.61;100.00
17593;BME280;8915;51.760;14.300;2022-07-05T04:28:34;101100.41;;;13.57;100.00
17593;BME280;8915;51.760;14.300;2022-07-05T04:31:03;101098.22;;;13.71;100.00
17593;BME280;8915;51.760;14.300;2022-07-05T04:33:35;101113.09;;;13.71;100.00
17593;BME280;8915;51.760;14.300;2022-07-05T04:36:03;101111.84;;;13.82;100.00
17593;BME280;8915;51.760;14.300;2022-07-05T04:38:30;101119.81;;;14.06;100.00
17593;BME280;8915;51.760;14.300;2022-07-05T04:40:58;101117.81;;;14.14;100.00
17593;BME280;8915;51.760;14.300;2022-07-05T04:43:27;101122.59;;;14.28;100.00
17593;BME280;8915;51.760;14.300;2022-07-05T04:45:54;101121.19;;;14.43;100.00
17593;BME280;8915;51.760;14.300;2022-07-05T04:48:21;101127.59;;;14.61;100.00
17593;BME280;8915;51.760;14.300;2022-07-05T04:50:49;101134.41;;;14.67;100.00
17593;BME280;8915;51.760;14.300;2022-07-05T04:53:15;101134.34;;;14.68;100.00
17593;BME280;8915;51.760;14.300;2022-07-05T04:55:41;101134.59;;;14.86;100.00
17593;BME280;8915;51.760;14.300;2022-07-05T04:58:08;101137.03;;;15.15;100.00
17593;BME280;8915;51.760;14.300;2022-07-05T05:00:34;101127.72;;;15.07;100.00
17593;BME280;8915;51.760;14.300;2022-07-05T05:03:01;101134.66;;;15.09;100.00
17593;BME280;8915;51.760;14.300;2022-07-05T05:05:27;101143.25;;;15.13;100.00
17593;BME280;8915;51.760;14.300;2022-07-05T05:07:55;101147.19;;;15.25;100.00
17593;BME280;8915;51.760;14.300;2022-07-05T05:10:21;101146.72;;;15.37;100.00
17593;BME280;8915;51.760;14.300;2022-07-05T05:12:48;101153.41;;;15.46;100.00
17593;BME280;8915;51.760;14.300;2022-07-05T05:15:14;101154.22;;;15.70;100.00
17593;BME280;8915;51.760;14.300;2022-07-05T05:17:42;101144.69;;;15.91;100.00
17593;BME280;8915;51.760;14.300;2022-07-05T05:20:11;101156.28;;;16.07;100.00
17593;BME280;8915;51.760;14.300;2022-07-05T05:22:38;101157.44;;;16.22;99.72
17593;BME280;8915;51.760;14.300;2022-07-05T05:25:08;101156.31;;;16.28;99.21
17593;BME280;8915;51.760;14.300;2022-07-05T05:27:35;101154.41;;;16.32;97.25
17593;BME280;8915;51.760;14.300;2022-07-05T05:30:02;101157.13;;;16.51;99.54
17593;BME280;8915;51.760;14.300;2022-07-05T05:32:28;101152.97;;;16.65;98.66
17593;BME280;8915;51.760;14.300;2022-07-05T05:34:54;101151.06;;;16.69;95.35
17593;BME280;8915;51.760;14.300;2022-07-05T05:37:21;101153.78;;;16.88;97.76
17593;BME280;8915;51.760;14.300;2022-07-05T05:39:47;101150.28;;;17.08;96.84
17593;BME280;8915;51.760;14.300;2022-07-05T05:42:15;101150.72;;;17.18;93.01
17593;BME280;8915;51.760;14.300;2022-07-05T05:44:41;101162.06;;;17.39;95.02
17593;BME280;8915;51.760;14.300;2022-07-05T05:47:07;101151.88;;;17.50;94.05
17593;BME280;8915;51.760;14.300;2022-07-05T05:49:34;101163.69;;;17.60;92.27
17593;BME280;8915;51.760;14.300;2022-07-05T05:52:00;101173.19;;;17.65;82.62
17593;BME280;8915;51.760;14.300;2022-07-05T05:54:27;101168.56;;;17.89;88.87
17593;BME280;8915;51.760;14.300;2022-07-05T05:56:53;101161.59;;;18.05;89.84
17593;BME280;8915;51.760;14.300;2022-07-05T05:59:20;101171.69;;;18.14;87.10
17593;BME280;8915;51.760;14.300;2022-07-05T06:01:47;101167.75;;;18.23;85.57
17593;BME280;8915;51.760;14.300;2022-07-05T06:04:13;101167.69;;;18.42;87.25
17593;BME280;8915;51.760;14.300;2022-07-05T06:06:40;101183.81;;;18.53;79.70
17593;BME280;8915;51.760;14.300;2022-07-05T06:09:06;101178.63;;;18.69;79.09
17593;BME280;8915;51.760;14.300;2022-07-05T06:11:33;101183.16;;;18.85;77.55
17593;BME280;8915;51.760;14.300;2022-07-05T06:13:59;101193.75;;;19.01;71.22
17593;BME280;8915;51.760;14.300;2022-07-05T06:16:27;101200.72;;;19.19;66.80
17593;BME280;8915;51.760;14.300;2022-07-05T06:18:53;101195.47;;;19.35;68.66
17593;BME280;8915;51.760;14.300;2022-07-05T06:21:19;101190.44;;;19.46;71.29
17593;BME280;8915;51.760;14.300;2022-07-05T06:23:46;101190.63;;;19.59;69.58
17593;BME280;8915;51.760;14.300;2022-07-05T06:26:12;101193.13;;;19.78;68.94
17593;BME280;8915;51.760;14.300;2022-07-05T06:28:39;101204.38;;;19.98;63.19
17593;BME280;8915;51.760;14.300;2022-07-05T06:31:05;101204.81;;;20.06;64.67
17593;BME280;8915;51.760;14.300;2022-07-05T06:33:33;101206.94;;;20.15;61.58
17593;BME280;8915;51.760;14.300;2022-07-05T06:35:59;101212.13;;;20.33;60.14
17593;BME280;8915;51.760;14.300;2022-07-05T06:38:26;101208.84;;;20.43;58.88
17593;BME280;8915;51.760;14.300;2022-07-05T06:40:52;101208.31;;;20.53;58.75
17593;BME280;8915;51.760;14.300;2022-07-05T06:43:22;101198.56;;;20.69;59.78
17593;BME280;8915;51.760;14.300;2022-07-05T06:45:59;101197.22;;;20.76;57.85
17593;BME280;8915;51.760;14.300;2022-07-05T06:48:26;101199.91;;;20.91;57.87
17593;BME280;8915;51.760;14.300;2022-07-05T06:50:53;101203.13;;;21.10;55.72
17593;BME280;8915;51.760;14.300;2022-07-05T06:53:20;101200.97;;;21.17;53.40
17593;BME280;8915;51.760;14.300;2022-07-05T06:55:46;101200.78;;;21.34;57.08
17593;BME280;8915;51.760;14.300;2022-07-05T06:58:12;101197.38;;;21.47;55.30
17593;BME280;8915;51.760;14.300;2022-07-05T07:00:39;101201.91;;;21.59;53.65
17593;BME280;8915;51.760;14.300;2022-07-05T07:03:06;101195.72;;;21.73;55.26
17593;BME280;8915;51.760;14.300;2022-07-05T07:05:32;101203.75;;;21.86;53.23
17593;BME280;8915;51.760;14.300;2022-07-05T07:08:00;101197.84;;;21.95;55.31
17593;BME280;8915;51.760;14.300;2022-07-05T07:10:44;101201.41;;;22.08;53.45
17593;BME280;8915;51.760;14.300;2022-07-05T07:13:11;101203.06;;;22.24;53.68
17593;BME280;8915;51.760;14.300;2022-07-05T07:15:37;101203.16;;;22.22;52.36
17593;BME280;8915;51.760;14.300;2022-07-05T07:18:04;101198.44;;;22.27;52.95
17593;BME280;8915;51.760;14.300;2022-07-05T07:20:31;101200.47;;;22.37;52.97
17593;BME280;8915;51.760;14.300;2022-07-05T07:22:57;101207.94;;;22.44;48.92
17593;BME280;8915;51.760;14.300;2022-07-05T07:25:25;101212.06;;;22.48;47.68
17593;BME280;8915;51.760;14.300;2022-07-05T07:27:53;101211.78;;;22.66;47.70
17593;BME280;8915;51.760;14.300;2022-07-05T07:30:23;101212.94;;;22.62;45.66
17593;BME280;8915;51.760;14.300;2022-07-05T07:32:49;101204.56;;;22.68;47.32
17593;BME280;8915;51.760;14.300;2022-07-05T07:35:16;101204.66;;;22.79;48.10
17593;BME280;8915;51.760;14.300;2022-07-05T07:37:42;101208.00;;;22.96;47.22
17593;BME280;8915;51.760;14.300;2022-07-05T07:40:10;101204.72;;;23.05;44.98
17593;BME280;8915;51.760;14.300;2022-07-05T07:42:38;101210.66;;;23.09;43.46
17593;BME280;8915;51.760;14.300;2022-07-05T07:45:05;101208.00;;;23.21;43.75
17593;BME280;8915;51.760;14.300;2022-07-05T07:47:32;101208.00;;;23.34;43.79
17593;BME280;8915;51.760;14.300;2022-07-05T07:49:59;101203.84;;;23.30;42.41
17593;BME280;8915;51.760;14.300;2022-07-05T07:52:26;101204.88;;;23.40;44.40
17593;BME280;8915;51.760;14.300;2022-07-05T07:54:53;101201.56;;;23.50;41.31
17593;BME280;8915;51.760;14.300;2022-07-05T07:57:19;101191.13;;;23.59;41.88
17593;BME280;8915;51.760;14.300;2022-07-05T07:59:47;101176.94;;;23.72;45.07
17593;BME280;8915;51.760;14.300;2022-07-05T08:02:13;101183.44;;;23.68;45.44
17593;BME280;8915;51.760;14.300;2022-07-05T08:04:40;101184.06;;;23.71;44.49
17593;BME280;8915;51.760;14.300;2022-07-05T08:07:06;101183.97;;;23.73;42.70
17593;BME280;8915;51.760;14.300;2022-07-05T08:09:33;101186.81;;;23.83;41.94
17593;BME280;8915;51.760;14.300;2022-07-05T08:12:00;101191.03;;;23.98;41.23
17593;BME280;8915;51.760;14.300;2022-07-05T08:14:26;101193.84;;;24.08;41.65
17593;BME280;8915;51.760;14.300;2022-07-05T08:16:54;101187.84;;;24.17;40.68
17593;BME280;8915;51.760;14.300;2022-07-05T08:19:20;101190.03;;;24.23;41.85
17593;BME280;8915;51.760;14.300;2022-07-05T08:22:05;101177.50;;;24.36;42.35
17593;BME280;8915;51.760;14.300;2022-07-05T08:24:33;101191.56;;;24.50;41.04
17593;BME280;8915;51.760;14.300;2022-07-05T08:27:00;101185.72;;;24.58;40.87
17593;BME280;8915;51.760;14.300;2022-07-05T08:29:26;101199.25;;;24.54;38.42
17593;BME280;8915;51.760;14.300;2022-07-05T08:31:54;101189.94;;;24.60;39.62
17593;BME280;8915;51.760;14.300;2022-07-05T08:34:21;101184.03;;;24.68;40.77
17593;BME280;8915;51.760;14.300;2022-07-05T08:36:47;101186.34;;;24.72;38.27
17593;BME280;8915;51.760;14.300;2022-07-05T08:39:14;101190.50;;;24.88;39.86
17593;BME280;8915;51.760;14.300;2022-07-05T08:41:42;101197.81;;;24.62;36.95
17593;BME280;8915;51.760;14.300;2022-07-05T08:44:09;101202.53;;;24.58;37.31
17593;BME280;8915;51.760;14.300;2022-07-05T08:46:37;101190.09;;;24.70;39.19
17593;BME280;8915;51.760;14.300;2022-07-05T08:49:06;101183.22;;;24.90;40.21
17593;BME280;8915;51.760;14.300;2022-07-05T08:51:35;101182.69;;;24.62;40.00
17593;BME280;8915;51.760;14.300;2022-07-05T08:54:03;101179.28;;;24.25;39.46
17593;BME280;8915;51.760;14.300;2022-07-05T08:56:30;101174.25;;;24.44;42.08
17593;BME280;8915;51.760;14.300;2022-07-05T08:58:56;101182.59;;;24.75;40.36
17593;BME280;8915;51.760;14.300;2022-07-05T09:01:24;101181.75;;;24.86;39.37
17593;BME280;8915;51.760;14.300;2022-07-05T09:03:51;101186.84;;;24.89;38.88
17593;BME280;8915;51.760;14.300;2022-07-05T09:06:21;101194.94;;;24.65;39.23
17593;BME280;8915;51.760;14.300;2022-07-05T09:08:51;101188.09;;;24.25;40.97
17593;BME280;8915;51.760;14.300;2022-07-05T09:11:21;101183.59;;;24.14;41.16
17593;BME280;8915;51.760;14.300;2022-07-05T09:13:50;101180.66;;;24.42;39.77
17593;BME280;8915;51.760;14.300;2022-07-05T09:16:16;101189.59;;;24.65;38.73
17593;BME280;8915;51.760;14.300;2022-07-05T09:18:45;101179.06;;;24.74;38.58
17593;BME280;8915;51.760;14.300;2022-07-05T09:21:16;101187.78;;;24.76;35.87
17593;BME280;8915;51.760;14.300;2022-07-05T09:23:45;101177.28;;;24.86;38.57
17593;BME280;8915;51.760;14.300;2022-07-05T09:26:19;101190.63;;;25.09;37.49
17593;BME280;8915;51.760;14.300;2022-07-05T09:28:53;101195.00;;;25.21;37.41
17593;BME280;8915;51.760;14.300;2022-07-05T09:31:26;101194.41;;;25.29;39.13
17593;BME280;8915;51.760;14.300;2022-07-05T09:33:53;101205.91;;;25.18;37.49
17593;BME280;8915;51.760;14.300;2022-07-05T09:36:19;101198.38;;;25.23;37.29
17593;BME280;8915;51.760;14.300;2022-07-05T09:38:50;101198.97;;;25.04;36.62
17593;BME280;8915;51.760;14.300;2022-07-05T09:41:17;101192.06;;;25.13;37.62
17593;BME280;8915;51.760;14.300;2022-07-05T09:43:43;101199.47;;;25.09;36.91
17593;BME280;8915;51.760;14.300;2022-07-05T09:46:10;101189.53;;;25.00;36.64
17593;BME280;8915;51.760;14.300;2022-07-05T09:48:51;101188.34;;;25.16;37.56
17593;BME280;8915;51.760;14.300;2022-07-05T09:51:17;101173.66;;;25.32;39.67
17593;BME280;8915;51.760;14.300;2022-07-05T09:53:45;101192.59;;;25.41;37.51
17593;BME280;8915;51.760;14.300;2022-07-05T09:56:13;101180.16;;;25.62;37.93
17593;BME280;8915;51.760;14.300;2022-07-05T09:58:40;101179.47;;;25.93;37.67
17593;BME280;8915;51.760;14.300;2022-07-05T10:01:24;101176.00;;;25.81;37.40
17593;BME280;8915;51.760;14.300;2022-07-05T10:03:51;101191.56;;;25.76;36.87
17593;BME280;8915;51.760;14.300;2022-07-05T10:06:19;101182.84;;;25.74;36.82
17593;BME280;8915;51.760;14.300;2022-07-05T10:08:46;101188.00;;;25.86;36.21
17593;BME280;8915;51.760;14.300;2022-07-05T10:11:16;101194.94;;;25.78;35.31
17593;BME280;8915;51.760;14.300;2022-07-05T10:13:43;101186.31;;;25.97;35.24
17593;BME280;8915;51.760;14.300;2022-07-05T10:16:10;101189.06;;;26.06;35.57
17593;BME280;8915;51.760;14.300;2022-07-05T10:18:38;101188.78;;;26.21;37.01
17593;BME280;8915;51.760;14.300;2022-07-05T10:21:05;101186.34;;;26.18;35.24
17593;BME280;8915;51.760;14.300;2022-07-05T10:23:36;101183.50;;;26.31;37.24
17593;BME280;8915;51.760;14.300;2022-07-05T10:26:05;101184.03;;;26.45;35.79
17593;BME280;8915;51.760;14.300;2022-07-05T10:28:33;101185.00;;;26.44;33.41
17593;BME280;8915;51.760;14.300;2022-07-05T10:31:01;101179.56;;;26.67;35.41
17593;BME280;8915;51.760;14.300;2022-07-05T10:33:29;101180.00;;;26.93;36.02
17593;BME280;8915;51.760;14.300;2022-07-05T10:35:56;101180.38;;;26.89;35.21
17593;BME280;8915;51.760;14.300;2022-07-05T10:38:23;101170.34;;;26.81;34.33
17593;BME280;8915;51.760;14.300;2022-07-05T10:40:52;101178.66;;;26.88;34.36
17593;BME280;8915;51.760;14.300;2022-07-05T10:43:22;101172.44;;;27.08;36.38
17593;BME280;8915;51.760;14.300;2022-07-05T10:45:51;101174.34;;;26.96;36.39
17593;BME280;8915;51.760;14.300;2022-07-05T10:48:19;101175.47;;;26.94;36.83
17593;BME280;8915;51.760;14.300;2022-07-05T10:50:48;101176.41;;;26.41;36.05
17593;BME280;8915;51.760;14.300;2022-07-05T10:53:16;101194.03;;;26.11;36.48
17593;BME280;8915;51.760;14.300;2022-07-05T10:55:53;101183.63;;;25.85;37.46
17593;BME280;8915;51.760;14.300;2022-07-05T10:58:26;101181.56;;;25.89;37.86
17593;BME280;8915;51.760;14.300;2022-07-05T11:01:33;101163.09;;;26.30;35.71
17593;BME280;8915;51.760;14.300;2022-07-05T11:04:11;101164.28;;;26.37;35.67
17593;BME280;8915;51.760;14.300;2022-07-05T11:06:41;101155.16;;;26.39;35.88
17593;BME280;8915;51.760;14.300;2022-07-05T11:09:15;101164.84;;;25.76;36.79
17593;BME280;8915;51.760;14.300;2022-07-05T11:11:43;101158.22;;;25.70;37.71
17593;BME280;8915;51.760;14.300;2022-07-05T11:14:31;101157.28;;;26.03;38.55
17593;BME280;8915;51.760;14.300;2022-07-05T11:17:13;101154.75;;;26.23;38.82
17593;BME280;8915;51.760;14.300;2022-07-05T11:19:59;101156.06;;;26.29;37.70
17593;BME280;8915;51.760;14.300;2022-07-05T11:22:26;101157.94;;;26.38;36.26
17593;BME280;8915;51.760;14.300;2022-07-05T11:24:53;101156.97;;;26.60;36.27
17593;BME280;8915;51.760;14.300;2022-07-05T11:27:20;101152.09;;;26.65;37.07
17593;BME280;8915;51.760;14.300;2022-07-05T11:29:48;101149.47;;;26.75;36.69
17593;BME280;8915;51.760;14.300;2022-07-05T11:32:17;101154.56;;;26.78;35.47
17593;BME280;8915;51.760;14.300;2022-07-05T11:34:45;101153.72;;;26.77;34.13
17593;BME280;8915;51.760;14.300;2022-07-05T11:37:18;101156.53;;;26.76;34.70
17593;BME280;8915;51.760;14.300;2022-07-05T11:40:25;101150.31;;;26.75;34.75
17593;BME280;8915;51.760;14.300;2022-07-05T11:42:54;101146.38;;;27.10;35.85
17593;BME280;8915;51.760;14.300;2022-07-05T11:45:20;101148.44;;;27.28;34.99
17593;BME280;8915;51.760;14.300;2022-07-05T11:47:47;101149.03;;;27.31;35.94
17593;BME280;8915;51.760;14.300;2022-07-05T11:50:13;101150.59;;;27.34;36.75
17593;BME280;8915;51.760;14.300;2022-07-05T11:52:40;101151.66;;;26.91;36.88
17593;BME280;8915;51.760;14.300;2022-07-05T11:55:08;101147.03;;;26.93;36.77
17593;BME280;8915;51.760;14.300;2022-07-05T11:57:36;101148.56;;;27.26;36.11
17593;BME280;8915;51.760;14.300;2022-07-05T12:00:05;101146.81;;;27.06;36.82
17593;BME280;8915;51.760;14.300;2022-07-05T12:02:43;101143.75;;;26.79;38.43
17593;BME280;8915;51.760;14.300;2022-07-05T12:05:10;101155.63;;;26.66;36.79
17593;BME280;8915;51.760;14.300;2022-07-05T12:07:37;101143.22;;;26.64;35.96
17593;BME280;8915;51.760;14.300;2022-07-05T12:10:04;101138.25;;;26.60;35.50
17593;BME280;8915;51.760;14.300;2022-07-05T12:12:48;101144.56;;;26.59;36.49
17593;BME280;8915;51.760;14.300;2022-07-05T12:15:17;101140.72;;;26.31;36.02
17593;BME280;8915;51.760;14.300;2022-07-05T12:17:47;101140.84;;;26.50;36.69
17593;BME280;8915;51.760;14.300;2022-07-05T12:20:15;101138.31;;;26.70;35.17
17593;BME280;8915;51.760;14.300;2022-07-05T12:22:46;101140.97;;;26.49;34.74
17593;BME280;8915;51.760;14.300;2022-07-05T12:25:14;101131.34;;;26.36;36.42
17593;BME280;8915;51.760;14.300;2022-07-05T12:27:44;101138.97;;;26.20;35.30
17593;BME280;8915;51.760;14.300;2022-07-05T12:30:11;101131.28;;;26.05;35.36
17593;BME280;8915;51.760;14.300;2022-07-05T12:35:33;101127.38;;;26.31;34.93
17593;BME280;8915;51.760;14.300;2022-07-05T12:38:05;101121.63;;;26.56;35.06
17593;BME280;8915;51.760;14.300;2022-07-05T12:40:33;101129.38;;;26.80;35.88
17593;BME280;8915;51.760;14.300;2022-07-05T12:43:04;101125.16;;;26.78;35.05
17593;BME280;8915;51.760;14.300;2022-07-05T12:45:32;101121.22;;;26.82;34.26
17593;BME280;8915;51.760;14.300;2022-07-05T12:48:00;101125.81;;;26.70;33.32
17593;BME280;8915;51.760;14.300;2022-07-05T12:50:28;101122.16;;;26.50;34.00
17593;BME280;8915;51.760;14.300;2022-07-05T12:53:02;101114.13;;;26.50;34.72
17593;BME280;8915;51.760;14.300;2022-07-05T12:55:50;101109.81;;;26.38;35.39